Stations météo

réclame
Mon MeteoGroup
Hemavan, Suède (2104): Température de l'air & dewpoint: 18.10.2018 07:00:00 - 24.10.2018 07:00:00 (CEST)Hemavan, Suède (2104): Vitesse du vent: 18.10.2018 07:00:00 - 24.10.2018 07:00:00 (CEST)Hemavan, Suède (2104): Direction du vent: 18.10.2018 07:00:00 - 24.10.2018 07:00:00 (CEST)Hemavan, Suède (2104): visibility: 18.10.2018 07:00:00 - 24.10.2018 07:00:00 (CEST)
Date & Time tt [°C] td [°C] ff [km/h] ff [knt] dd vv [km]
24.10.2018 07:00:00 -1,0 -1,0 0 0 N 8
24.10.2018 06:00:00 0,0 -1,0 0 0 N 0,9
24.10.2018 05:00:00 -1,0 -1,0 4 2 - 2,5
24.10.2018 04:00:00 -1,0 -2,0 0 0 N 4,9
24.10.2018 03:00:00 -1,0 -2,0 0 0 N 4,7
24.10.2018 02:00:00 -2,0 -3,0 0 0 N 10
24.10.2018 01:00:00 -2,0 -3,0 0 0 N 10
24.10.2018 00:00:00 -2,0 -3,0 2 1 - 10
23.10.2018 23:00:00 -3,0 -4,0 4 2 N 10
23.10.2018 22:00:00 -4,0 -4,0 0 0 N 10
23.10.2018 21:00:00 -5,0 -5,0 0 0 N 10
23.10.2018 20:00:00 -4,0 -5,0 0 0 N 10
23.10.2018 19:00:00 -1,0 -3,0 5 3 - 10
23.10.2018 18:00:00 0,0 -2,0 8 4 W 10
23.10.2018 17:00:00 0,0 -4,0 13 7 NW 10
23.10.2018 16:00:00 0,0 -1,0 5 3 NNW 10
23.10.2018 15:00:00 0,0 -1,0 0 0 N 10
23.10.2018 14:00:00 0,0 -1,0 0 0 N 3,6
23.10.2018 13:00:00 0,0 -1,0 4 2 SE 2,8
23.10.2018 12:00:00 0,0 -2,0 9 5 SSE 9
23.10.2018 11:00:00 -1,0 -2,0 5 3 ESE 4,2
23.10.2018 10:00:00 -2,0 -3,0 4 2 SE 10
23.10.2018 09:00:00 -3,0 -3,0 0 0 N 10
23.10.2018 08:00:00 -2,0 -3,0 2 1 SE 10
23.10.2018 07:00:00 -3,0 -4,0 8 4 SSE 10
23.10.2018 06:00:00 -3,0 -3,0 5 3 SE 10
23.10.2018 05:00:00 -2,0 -2,0 4 2 - 10
23.10.2018 04:00:00 -2,0 -2,0 5 3 ESE 10
23.10.2018 03:00:00 -2,0 -3,0 0 0 N 10
23.10.2018 02:00:00 -1,0 -1,0 0 0 N 10
23.10.2018 01:00:00 0,0 -1,0 4 2 - 10
23.10.2018 00:00:00 0,0 -1,0 0 0 N 10
22.10.2018 23:00:00 0,0 -1,0 2 1 - 10
22.10.2018 22:00:00 0,0 0,0 5 3 - 9
22.10.2018 21:00:00 0,0 -1,0 4 2 - 10
22.10.2018 20:00:00 0,0 -1,0 15 8 WNW 5
22.10.2018 19:00:00 0,0 -2,0 16 9 W 4,2
22.10.2018 18:00:00 0,0 -1,0 9 5 NW 10
22.10.2018 17:00:00 1,0 -1,0 15 8 W 10
22.10.2018 16:00:00 1,0 -1,0 16 9 WNW 2,1
22.10.2018 15:00:00 0,0 0,0 0 0 N 10
22.10.2018 14:00:00 1,0 0,0 4 2 - 1,2
22.10.2018 13:00:00 1,0 -1,0 13 7 WNW 10
22.10.2018 12:00:00 1,0 0,0 8 4 WNW 10
22.10.2018 11:00:00 0,0 0,0 0 0 N 1,1
22.10.2018 10:00:00 0,0 0,0 16 9 NW 1,4
22.10.2018 09:00:00 1,0 0,0 5 3 - 10
22.10.2018 08:00:00 0,0 0,0 11 6 SSE 0,6
22.10.2018 07:00:00 0,0 0,0 16 9 ESE 1,3
22.10.2018 06:00:00 0,0 -1,0 0 0 N 2,5
22.10.2018 05:00:00 0,0 -2,0 5 3 SE 10
22.10.2018 04:00:00 0,0 -1,0 0 0 N 10
22.10.2018 03:00:00 -1,0 -1,0 4 2 NNW 10
22.10.2018 02:00:00 0,0 0,0 15 8 NW 2,1
22.10.2018 01:00:00 1,0 0,0 5 3 NW 10
22.10.2018 00:00:00 2,0 0,0 18 10 WNW 1,8
21.10.2018 23:00:00 2,0 0,0 5 3 N 10
21.10.2018 22:00:00 2,0 1,0 8 4 WNW 10
21.10.2018 21:00:00 2,0 1,0 5 3 SE 10
21.10.2018 20:00:00 3,0 0,0 15 8 S 10
21.10.2018 19:00:00 3,0 2,0 11 6 WNW 9
21.10.2018 18:00:00 3,0 2,0 5 3 NW 10
21.10.2018 17:00:00 3,0 2,0 0 0 N 7
21.10.2018 16:00:00 3,0 2,0 9 5 E 10
21.10.2018 15:00:00 3,0 2,0 11 6 NW 7
21.10.2018 14:00:00 6,0 2,0 11 6 W 10
21.10.2018 13:00:00 5,0 3,0 16 9 NW 10
21.10.2018 12:00:00 5,0 2,0 9 5 - 10
21.10.2018 11:00:00 6,0 2,0 15 8 W 10
21.10.2018 10:00:00 5,0 3,0 9 5 WNW 9
21.10.2018 09:00:00 6,0 2,0 21 11 W 10
21.10.2018 08:00:00 7,0 4,0 11 6 W 10
21.10.2018 07:00:00 5,0 4,0 9 5 ESE 10
21.10.2018 06:00:00 4,0 4,0 15 8 SE 10
21.10.2018 05:00:00 5,0 3,0 18 10 ESE 10
21.10.2018 04:00:00 4,0 3,0 16 9 SE 8
21.10.2018 03:00:00 4,0 2,0 18 10 SE 10
21.10.2018 02:00:00 4,0 2,0 18 10 SSE 10
21.10.2018 01:00:00 4,0 2,0 24 13 SSE 6
21.10.2018 00:00:00 5,0 2,0 15 8 SE 10
20.10.2018 23:00:00 5,0 2,0 8 4 SSE 10
20.10.2018 22:00:00 4,0 2,0 8 4 ESE 10
20.10.2018 21:00:00 4,0 2,0 8 4 SE 10
20.10.2018 20:00:00 4,0 2,0 5 3 SSE 10
20.10.2018 19:00:00 4,0 2,0 0 0 N 10
20.10.2018 18:00:00 4,0 2,0 4 2 - 10
20.10.2018 17:00:00 5,0 2,0 0 0 N 10
20.10.2018 16:00:00 6,0 2,0 0 0 N 10
20.10.2018 15:00:00 6,0 3,0 4 2 - 10
20.10.2018 14:00:00 6,0 3,0 0 0 N 10
20.10.2018 13:00:00 6,0 3,0 0 0 N 10
20.10.2018 12:00:00 5,0 4,0 2 1 - 10
20.10.2018 11:00:00 4,0 3,0 8 4 E 10
20.10.2018 10:00:00 3,0 3,0 0 0 N 10
20.10.2018 09:00:00 3,0 2,0 4 2 S 10
20.10.2018 08:00:00 3,0 2,0 8 4 SE 10
20.10.2018 07:00:00 2,0 2,0 5 3 SSE 10
20.10.2018 06:00:00 2,0 2,0 0 0 N 10
20.10.2018 05:00:00 2,0 2,0 4 2 SSE 10
20.10.2018 04:00:00 3,0 3,0 0 0 N 10
20.10.2018 03:00:00 3,0 3,0 4 2 SE 10
20.10.2018 02:00:00 3,0 3,0 5 3 SE 10
20.10.2018 01:00:00 3,0 3,0 8 4 SE 10
20.10.2018 00:00:00 3,0 3,0 0 0 N 10
19.10.2018 23:00:00 3,0 3,0 4 2 ESE 10
19.10.2018 22:00:00 3,0 3,0 2 1 - 10
19.10.2018 21:00:00 3,0 3,0 0 0 N 10
19.10.2018 20:00:00 3,0 3,0 0 0 N 10
19.10.2018 19:00:00 3,0 3,0 0 0 N 10
19.10.2018 18:00:00 4,0 3,0 0 0 N 10
19.10.2018 17:00:00 5,0 3,0 0 0 N 10
19.10.2018 16:00:00 4,0 3,0 8 4 NW 10
19.10.2018 15:00:00 5,0 2,0 9 5 WNW 10
19.10.2018 14:00:00 5,0 2,0 8 4 NNW 10
19.10.2018 13:00:00 5,0 1,0 9 5 NW 10
19.10.2018 12:00:00 5,0 1,0 15 8 WNW 10
19.10.2018 11:00:00 5,0 1,0 15 8 W 10
19.10.2018 10:00:00 4,0 1,0 21 11 W 10
19.10.2018 09:00:00 4,0 2,0 16 9 WNW 10
19.10.2018 08:00:00 4,0 2,0 0 0 N 10
19.10.2018 07:00:00 5,0 2,0 26 14 WNW 10
19.10.2018 06:00:00 5,0 3,0 22 12 WNW 10
19.10.2018 05:00:00 5,0 3,0 28 15 WNW 10
19.10.2018 04:00:00 5,0 2,0 34 18 WNW 10
19.10.2018 03:00:00 5,0 2,0 21 11 NNW 10
19.10.2018 02:00:00 5,0 2,0 24 13 WNW 10
19.10.2018 01:00:00 4,0 2,0 28 15 WNW 10
19.10.2018 00:00:00 5,0 2,0 18 10 WNW 10
18.10.2018 23:00:00 4,0 2,0 9 5 NW 10
18.10.2018 22:00:00 4,0 2,0 9 5 NW 10
18.10.2018 21:00:00 4,0 2,0 18 10 WNW 10
18.10.2018 20:00:00 4,0 2,0 15 8 NW 8
18.10.2018 19:00:00 4,0 2,0 21 11 NW 6
18.10.2018 18:00:00 4,0 2,0 21 11 WNW 7
18.10.2018 17:00:00 4,0 3,0 13 7 NW 8
18.10.2018 16:00:00 3,0 1,0 5 3 - 10
18.10.2018 15:00:00 4,0 2,0 8 4 W 10
18.10.2018 14:00:00 4,0 2,0 4 2 - 10
18.10.2018 13:00:00 4,0 2,0 2 1 - 9
18.10.2018 12:00:00 4,0 2,0 0 0 N 10
18.10.2018 11:00:00 4,0 1,0 8 4 E 10
18.10.2018 10:00:00 3,0 1,0 4 2 - 10
18.10.2018 09:00:00 4,0 1,0 8 4 WNW 10
18.10.2018 08:00:00 4,0 2,0 4 2 - 10
18.10.2018 07:00:00 4,0 1,0 4 2 - 10

tt = Température de l'air
td = dewpoint
ff = Vitesse du vent
dd = Direction du vent
vv = visibility

stations d'obs. à proximité